sensor_id;sensor_type;location;lat;lon;timestamp;temperature;humidity
40077;DHT22;25777;47.824;18.982;2023-08-07T00:01:59;15.00;99.90
40077;DHT22;25777;47.824;18.982;2023-08-07T00:04:28;14.80;99.90
40077;DHT22;25777;47.824;18.982;2023-08-07T00:06:54;14.80;99.90
40077;DHT22;25777;47.824;18.982;2023-08-07T00:09:20;14.80;99.90
40077;DHT22;25777;47.824;18.982;2023-08-07T00:11:45;14.90;99.90
40077;DHT22;25777;47.824;18.982;2023-08-07T00:14:11;15.00;99.90
40077;DHT22;25777;47.824;18.982;2023-08-07T00:16:37;15.00;99.90
40077;DHT22;25777;47.824;18.982;2023-08-07T00:19:03;14.90;99.90
40077;DHT22;25777;47.824;18.982;2023-08-07T00:21:29;14.90;99.90
40077;DHT22;25777;47.824;18.982;2023-08-07T00:23:56;14.90;99.90
40077;DHT22;25777;47.824;18.982;2023-08-07T00:26:24;14.90;99.90
40077;DHT22;25777;47.824;18.982;2023-08-07T00:28:55;14.80;99.90
40077;DHT22;25777;47.824;18.982;2023-08-07T00:31:23;15.00;99.90
40077;DHT22;25777;47.824;18.982;2023-08-07T00:33:49;14.90;99.90
40077;DHT22;25777;47.824;18.982;2023-08-07T00:36:27;14.90;99.90
40077;DHT22;25777;47.824;18.982;2023-08-07T00:39:00;14.80;99.90
40077;DHT22;25777;47.824;18.982;2023-08-07T00:41:33;14.70;99.90
40077;DHT22;25777;47.824;18.982;2023-08-07T00:44:01;14.80;99.90
40077;DHT22;25777;47.824;18.982;2023-08-07T00:46:39;14.70;99.90
40077;DHT22;25777;47.824;18.982;2023-08-07T00:49:07;14.60;99.90
40077;DHT22;25777;47.824;18.982;2023-08-07T00:51:34;14.60;99.90
40077;DHT22;25777;47.824;18.982;2023-08-07T00:54:03;14.60;99.90
40077;DHT22;25777;47.824;18.982;2023-08-07T00:56:37;14.70;99.90
40077;DHT22;25777;47.824;18.982;2023-08-07T00:59:03;14.70;99.90
40077;DHT22;25777;47.824;18.982;2023-08-07T01:01:29;14.60;99.90
40077;DHT22;25777;47.824;18.982;2023-08-07T01:04:09;14.70;99.90
40077;DHT22;25777;47.824;18.982;2023-08-07T01:07:02;14.70;99.90
40077;DHT22;25777;47.824;18.982;2023-08-07T01:09:28;14.60;99.90
40077;DHT22;25777;47.824;18.982;2023-08-07T01:12:06;14.70;99.90
40077;DHT22;25777;47.824;18.982;2023-08-07T01:14:55;14.70;99.90
40077;DHT22;25777;47.824;18.982;2023-08-07T01:17:53;14.50;99.90
40077;DHT22;25777;47.824;18.982;2023-08-07T01:20:20;14.40;99.90
40077;DHT22;25777;47.824;18.982;2023-08-07T01:22:48;14.30;99.90
40077;DHT22;25777;47.824;18.982;2023-08-07T01:25:14;14.30;99.90
40077;DHT22;25777;47.824;18.982;2023-08-07T01:30:36;14.50;99.90
40077;DHT22;25777;47.824;18.982;2023-08-07T01:35:57;14.40;99.90
40077;DHT22;25777;47.824;18.982;2023-08-07T01:38:26;14.40;99.90
40077;DHT22;25777;47.824;18.982;2023-08-07T01:40:56;14.40;99.90
40077;DHT22;25777;47.824;18.982;2023-08-07T01:43:24;14.50;99.90
40077;DHT22;25777;47.824;18.982;2023-08-07T01:45:51;14.50;99.90
40077;DHT22;25777;47.824;18.982;2023-08-07T01:48:18;14.40;99.90
40077;DHT22;25777;47.824;18.982;2023-08-07T01:50:45;14.40;99.90
40077;DHT22;25777;47.824;18.982;2023-08-07T01:53:19;14.30;99.90
40077;DHT22;25777;47.824;18.982;2023-08-07T01:55:45;14.30;99.90
40077;DHT22;25777;47.824;18.982;2023-08-07T01:58:15;14.20;99.90
40077;DHT22;25777;47.824;18.982;2023-08-07T02:00:41;14.20;99.90
40077;DHT22;25777;47.824;18.982;2023-08-07T02:03:19;14.30;99.90
40077;DHT22;25777;47.824;18.982;2023-08-07T02:05:48;14.30;99.90
40077;DHT22;25777;47.824;18.982;2023-08-07T02:08:14;14.40;99.90
40077;DHT22;25777;47.824;18.982;2023-08-07T02:10:43;14.30;99.90
40077;DHT22;25777;47.824;18.982;2023-08-07T02:13:10;14.30;99.90
40077;DHT22;25777;47.824;18.982;2023-08-07T02:15:36;14.30;99.90
40077;DHT22;25777;47.824;18.982;2023-08-07T02:18:04;14.50;99.90
40077;DHT22;25777;47.824;18.982;2023-08-07T02:20:31;14.50;99.90
40077;DHT22;25777;47.824;18.982;2023-08-07T02:22:57;14.50;99.90
40077;DHT22;25777;47.824;18.982;2023-08-07T02:25:23;14.50;99.90
40077;DHT22;25777;47.824;18.982;2023-08-07T02:27:51;14.50;99.90
40077;DHT22;25777;47.824;18.982;2023-08-07T02:30:17;14.50;99.90
40077;DHT22;25777;47.824;18.982;2023-08-07T02:32:48;14.50;99.90
40077;DHT22;25777;47.824;18.982;2023-08-07T02:35:21;14.40;99.90
40077;DHT22;25777;47.824;18.982;2023-08-07T02:38:15;14.30;99.90
40077;DHT22;25777;47.824;18.982;2023-08-07T02:40:41;14.20;99.90
40077;DHT22;25777;47.824;18.982;2023-08-07T02:43:07;14.20;99.90
40077;DHT22;25777;47.824;18.982;2023-08-07T02:45:34;14.30;99.90
40077;DHT22;25777;47.824;18.982;2023-08-07T02:48:00;14.30;99.90
40077;DHT22;25777;47.824;18.982;2023-08-07T02:50:31;14.20;99.90
40077;DHT22;25777;47.824;18.982;2023-08-07T02:53:10;14.10;99.90
40077;DHT22;25777;47.824;18.982;2023-08-07T02:55:36;14.20;99.90
40077;DHT22;25777;47.824;18.982;2023-08-07T02:58:10;14.20;99.90
40077;DHT22;25777;47.824;18.982;2023-08-07T03:00:36;14.30;99.90
40077;DHT22;25777;47.824;18.982;2023-08-07T03:03:02;14.30;99.90
40077;DHT22;25777;47.824;18.982;2023-08-07T03:05:29;14.50;99.90
40077;DHT22;25777;47.824;18.982;2023-08-07T03:07:59;14.40;99.90
40077;DHT22;25777;47.824;18.982;2023-08-07T03:10:26;14.40;99.90
40077;DHT22;25777;47.824;18.982;2023-08-07T03:13:01;14.20;99.90
40077;DHT22;25777;47.824;18.982;2023-08-07T03:15:28;14.10;99.90
40077;DHT22;25777;47.824;18.982;2023-08-07T03:17:54;14.10;99.90
40077;DHT22;25777;47.824;18.982;2023-08-07T03:20:25;14.20;99.90
40077;DHT22;25777;47.824;18.982;2023-08-07T03:22:52;14.20;99.90
40077;DHT22;25777;47.824;18.982;2023-08-07T03:25:20;14.10;99.90
40077;DHT22;25777;47.824;18.982;2023-08-07T03:27:46;14.00;99.90
40077;DHT22;25777;47.824;18.982;2023-08-07T03:30:28;14.00;99.90
40077;DHT22;25777;47.824;18.982;2023-08-07T03:33:01;14.00;99.90
40077;DHT22;25777;47.824;18.982;2023-08-07T03:35:28;14.00;99.90
40077;DHT22;25777;47.824;18.982;2023-08-07T03:38:01;14.00;99.90
40077;DHT22;25777;47.824;18.982;2023-08-07T03:40:28;14.00;99.90
40077;DHT22;25777;47.824;18.982;2023-08-07T03:42:55;13.90;99.90
40077;DHT22;25777;47.824;18.982;2023-08-07T03:45:21;13.90;99.90
40077;DHT22;25777;47.824;18.982;2023-08-07T03:47:48;13.90;99.90
40077;DHT22;25777;47.824;18.982;2023-08-07T03:50:13;13.90;99.90
40077;DHT22;25777;47.824;18.982;2023-08-07T03:52:43;13.90;99.90
40077;DHT22;25777;47.824;18.982;2023-08-07T03:55:09;13.90;99.90
40077;DHT22;25777;47.824;18.982;2023-08-07T03:57:35;13.80;99.90
40077;DHT22;25777;47.824;18.982;2023-08-07T04:00:01;13.90;99.90
40077;DHT22;25777;47.824;18.982;2023-08-07T04:02:28;14.00;99.90
40077;DHT22;25777;47.824;18.982;2023-08-07T04:04:55;13.90;99.90
40077;DHT22;25777;47.824;18.982;2023-08-07T04:07:21;13.90;99.90
40077;DHT22;25777;47.824;18.982;2023-08-07T04:09:47;13.90;99.90
40077;DHT22;25777;47.824;18.982;2023-08-07T04:12:13;14.00;99.90
40077;DHT22;25777;47.824;18.982;2023-08-07T04:14:39;13.90;99.90
40077;DHT22;25777;47.824;18.982;2023-08-07T04:17:05;14.10;99.90
40077;DHT22;25777;47.824;18.982;2023-08-07T04:19:31;14.30;99.90
40077;DHT22;25777;47.824;18.982;2023-08-07T04:21:57;14.40;99.90
40077;DHT22;25777;47.824;18.982;2023-08-07T04:24:22;14.60;99.90
40077;DHT22;25777;47.824;18.982;2023-08-07T04:26:49;14.60;99.90
40077;DHT22;25777;47.824;18.982;2023-08-07T04:29:21;14.60;99.90
40077;DHT22;25777;47.824;18.982;2023-08-07T04:31:49;14.70;99.90
40077;DHT22;25777;47.824;18.982;2023-08-07T04:34:15;14.50;99.90
40077;DHT22;25777;47.824;18.982;2023-08-07T04:36:42;14.60;99.90
40077;DHT22;25777;47.824;18.982;2023-08-07T04:39:08;14.80;99.90
40077;DHT22;25777;47.824;18.982;2023-08-07T04:41:34;14.90;99.90
40077;DHT22;25777;47.824;18.982;2023-08-07T04:44:00;14.80;99.90
40077;DHT22;25777;47.824;18.982;2023-08-07T04:46:26;14.90;99.90
40077;DHT22;25777;47.824;18.982;2023-08-07T04:48:52;14.90;99.90
40077;DHT22;25777;47.824;18.982;2023-08-07T04:51:20;15.00;99.90
40077;DHT22;25777;47.824;18.982;2023-08-07T04:53:46;15.10;99.90
40077;DHT22;25777;47.824;18.982;2023-08-07T04:56:16;15.20;99.90
40077;DHT22;25777;47.824;18.982;2023-08-07T04:58:47;15.20;99.90
40077;DHT22;25777;47.824;18.982;2023-08-07T05:01:12;15.30;99.90
40077;DHT22;25777;47.824;18.982;2023-08-07T05:03:45;15.40;99.90
40077;DHT22;25777;47.824;18.982;2023-08-07T05:06:11;15.50;99.90
40077;DHT22;25777;47.824;18.982;2023-08-07T05:08:38;15.60;99.90
40077;DHT22;25777;47.824;18.982;2023-08-07T05:11:07;15.60;99.90
40077;DHT22;25777;47.824;18.982;2023-08-07T05:13:33;15.70;99.90
40077;DHT22;25777;47.824;18.982;2023-08-07T05:16:09;15.70;99.90
40077;DHT22;25777;47.824;18.982;2023-08-07T05:18:36;15.80;99.90
40077;DHT22;25777;47.824;18.982;2023-08-07T05:21:02;15.80;99.90
40077;DHT22;25777;47.824;18.982;2023-08-07T05:23:32;15.90;99.90
40077;DHT22;25777;47.824;18.982;2023-08-07T05:25:58;15.80;99.90
40077;DHT22;25777;47.824;18.982;2023-08-07T05:28:30;15.90;99.90
40077;DHT22;25777;47.824;18.982;2023-08-07T05:30:56;16.00;99.90
40077;DHT22;25777;47.824;18.982;2023-08-07T05:33:22;16.10;99.90
40077;DHT22;25777;47.824;18.982;2023-08-07T05:35:48;16.10;99.90
40077;DHT22;25777;47.824;18.982;2023-08-07T05:38:16;16.20;99.90
40077;DHT22;25777;47.824;18.982;2023-08-07T05:40:50;16.30;99.90
40077;DHT22;25777;47.824;18.982;2023-08-07T05:43:28;16.30;99.90
40077;DHT22;25777;47.824;18.982;2023-08-07T05:46:02;16.30;99.90
40077;DHT22;25777;47.824;18.982;2023-08-07T05:48:28;16.30;99.90
40077;DHT22;25777;47.824;18.982;2023-08-07T05:51:00;16.30;99.90
40077;DHT22;25777;47.824;18.982;2023-08-07T05:53:29;16.20;99.90
40077;DHT22;25777;47.824;18.982;2023-08-07T05:55:55;16.20;99.90
40077;DHT22;25777;47.824;18.982;2023-08-07T05:58:24;16.10;99.90
40077;DHT22;25777;47.824;18.982;2023-08-07T06:00:55;16.10;99.90
40077;DHT22;25777;47.824;18.982;2023-08-07T06:03:25;16.10;99.90
40077;DHT22;25777;47.824;18.982;2023-08-07T06:05:52;16.20;99.90
40077;DHT22;25777;47.824;18.982;2023-08-07T06:08:27;16.20;99.90
40077;DHT22;25777;47.824;18.982;2023-08-07T06:10:57;16.30;99.90
40077;DHT22;25777;47.824;18.982;2023-08-07T06:13:26;16.50;99.90
40077;DHT22;25777;47.824;18.982;2023-08-07T06:15:52;16.60;99.90
40077;DHT22;25777;47.824;18.982;2023-08-07T06:18:41;16.90;99.90
40077;DHT22;25777;47.824;18.982;2023-08-07T06:21:07;17.20;99.90
40077;DHT22;25777;47.824;18.982;2023-08-07T06:23:37;17.30;99.90
40077;DHT22;25777;47.824;18.982;2023-08-07T06:26:06;17.10;99.90
40077;DHT22;25777;47.824;18.982;2023-08-07T06:28:46;16.90;99.90
40077;DHT22;25777;47.824;18.982;2023-08-07T06:31:15;16.70;99.90
40077;DHT22;25777;47.824;18.982;2023-08-07T06:33:49;16.60;99.90
40077;DHT22;25777;47.824;18.982;2023-08-07T06:36:24;16.70;99.90
40077;DHT22;25777;47.824;18.982;2023-08-07T06:38:50;16.60;99.90
40077;DHT22;25777;47.824;18.982;2023-08-07T06:41:17;16.60;99.90
40077;DHT22;25777;47.824;18.982;2023-08-07T06:43:43;16.50;99.90
40077;DHT22;25777;47.824;18.982;2023-08-07T06:46:10;16.60;99.90
40077;DHT22;25777;47.824;18.982;2023-08-07T06:48:47;16.60;99.90
40077;DHT22;25777;47.824;18.982;2023-08-07T06:51:24;16.50;99.90
40077;DHT22;25777;47.824;18.982;2023-08-07T06:53:50;16.50;99.90
40077;DHT22;25777;47.824;18.982;2023-08-07T06:56:24;16.40;99.90
40077;DHT22;25777;47.824;18.982;2023-08-07T06:58:51;16.20;99.90
40077;DHT22;25777;47.824;18.982;2023-08-07T07:01:18;16.30;99.90
40077;DHT22;25777;47.824;18.982;2023-08-07T07:03:43;16.40;99.90
40077;DHT22;25777;47.824;18.982;2023-08-07T07:06:14;16.30;99.90
40077;DHT22;25777;47.824;18.982;2023-08-07T07:08:51;16.30;99.90
40077;DHT22;25777;47.824;18.982;2023-08-07T07:11:26;16.20;99.90
40077;DHT22;25777;47.824;18.982;2023-08-07T07:13:56;16.10;99.90
40077;DHT22;25777;47.824;18.982;2023-08-07T07:16:22;16.20;99.90
40077;DHT22;25777;47.824;18.982;2023-08-07T07:18:55;16.00;99.90
40077;DHT22;25777;47.824;18.982;2023-08-07T07:21:27;15.90;99.90
40077;DHT22;25777;47.824;18.982;2023-08-07T07:26:46;15.90;99.90
40077;DHT22;25777;47.824;18.982;2023-08-07T07:29:12;15.90;99.90
40077;DHT22;25777;47.824;18.982;2023-08-07T07:31:38;15.80;99.90
40077;DHT22;25777;47.824;18.982;2023-08-07T07:34:07;15.80;99.90
40077;DHT22;25777;47.824;18.982;2023-08-07T07:36:48;15.70;99.90
40077;DHT22;25777;47.824;18.982;2023-08-07T07:39:15;15.80;99.90
40077;DHT22;25777;47.824;18.982;2023-08-07T07:41:43;15.80;99.90
40077;DHT22;25777;47.824;18.982;2023-08-07T07:44:32;15.60;99.90
40077;DHT22;25777;47.824;18.982;2023-08-07T07:47:06;15.50;99.90
40077;DHT22;25777;47.824;18.982;2023-08-07T07:49:33;15.50;99.90
40077;DHT22;25777;47.824;18.982;2023-08-07T07:52:15;15.50;99.90
40077;DHT22;25777;47.824;18.982;2023-08-07T07:55:03;15.50;99.90
40077;DHT22;25777;47.824;18.982;2023-08-07T07:57:40;15.30;99.90
40077;DHT22;25777;47.824;18.982;2023-08-07T08:00:08;15.30;99.90
40077;DHT22;25777;47.824;18.982;2023-08-07T08:02:36;15.30;99.90
40077;DHT22;25777;47.824;18.982;2023-08-07T08:05:03;15.50;99.90
40077;DHT22;25777;47.824;18.982;2023-08-07T08:07:28;15.40;99.90
40077;DHT22;25777;47.824;18.982;2023-08-07T08:10:10;15.50;99.90
40077;DHT22;25777;47.824;18.982;2023-08-07T08:12:50;15.60;99.90
40077;DHT22;25777;47.824;18.982;2023-08-07T08:15:16;15.60;99.90
40077;DHT22;25777;47.824;18.982;2023-08-07T08:17:46;15.40;99.90
40077;DHT22;25777;47.824;18.982;2023-08-07T08:20:14;15.50;99.90
40077;DHT22;25777;47.824;18.982;2023-08-07T08:22:45;15.50;99.90
40077;DHT22;25777;47.824;18.982;2023-08-07T08:25:37;15.50;99.90
40077;DHT22;25777;47.824;18.982;2023-08-07T08:28:03;15.50;99.90
40077;DHT22;25777;47.824;18.982;2023-08-07T08:30:30;15.40;99.90
40077;DHT22;25777;47.824;18.982;2023-08-07T08:32:56;15.50;99.90
40077;DHT22;25777;47.824;18.982;2023-08-07T08:35:22;15.30;99.90
40077;DHT22;25777;47.824;18.982;2023-08-07T08:37:48;15.20;99.90
40077;DHT22;25777;47.824;18.982;2023-08-07T08:40:16;15.20;99.90
40077;DHT22;25777;47.824;18.982;2023-08-07T08:42:46;15.20;99.90
40077;DHT22;25777;47.824;18.982;2023-08-07T08:45:16;15.20;99.90
40077;DHT22;25777;47.824;18.982;2023-08-07T08:47:55;15.20;99.90
40077;DHT22;25777;47.824;18.982;2023-08-07T08:50:32;15.30;99.90
40077;DHT22;25777;47.824;18.982;2023-08-07T08:53:03;15.40;99.90
40077;DHT22;25777;47.824;18.982;2023-08-07T08:55:52;15.30;99.90
40077;DHT22;25777;47.824;18.982;2023-08-07T08:58:20;15.40;99.90
40077;DHT22;25777;47.824;18.982;2023-08-07T09:00:48;15.40;99.90
40077;DHT22;25777;47.824;18.982;2023-08-07T09:03:18;15.30;99.90
40077;DHT22;25777;47.824;18.982;2023-08-07T09:05:50;15.40;99.90
40077;DHT22;25777;47.824;18.982;2023-08-07T09:08:22;15.40;99.90
40077;DHT22;25777;47.824;18.982;2023-08-07T09:10:54;15.40;99.90
40077;DHT22;25777;47.824;18.982;2023-08-07T09:13:25;15.40;99.90
40077;DHT22;25777;47.824;18.982;2023-08-07T09:16:00;15.40;99.90
40077;DHT22;25777;47.824;18.982;2023-08-07T09:18:34;15.30;99.90
40077;DHT22;25777;47.824;18.982;2023-08-07T09:21:13;15.30;99.90
40077;DHT22;25777;47.824;18.982;2023-08-07T09:23:55;15.30;99.90
40077;DHT22;25777;47.824;18.982;2023-08-07T09:26:34;15.40;99.90
40077;DHT22;25777;47.824;18.982;2023-08-07T09:29:03;15.40;99.90
40077;DHT22;25777;47.824;18.982;2023-08-07T09:31:37;15.30;99.90
40077;DHT22;25777;47.824;18.982;2023-08-07T09:34:06;15.40;99.90
40077;DHT22;25777;47.824;18.982;2023-08-07T09:36:32;15.40;99.90
40077;DHT22;25777;47.824;18.982;2023-08-07T09:39:09;15.40;99.90
40077;DHT22;25777;47.824;18.982;2023-08-07T09:41:44;15.40;99.90
40077;DHT22;25777;47.824;18.982;2023-08-07T09:44:16;15.40;99.90
40077;DHT22;25777;47.824;18.982;2023-08-07T09:50:05;15.60;99.90
40077;DHT22;25777;47.824;18.982;2023-08-07T09:52:31;15.60;99.90
40077;DHT22;25777;47.824;18.982;2023-08-07T09:54:58;15.70;99.90
40077;DHT22;25777;47.824;18.982;2023-08-07T09:57:24;15.80;99.90
40077;DHT22;25777;47.824;18.982;2023-08-07T09:59:52;15.80;99.90
40077;DHT22;25777;47.824;18.982;2023-08-07T10:02:19;15.90;99.90
40077;DHT22;25777;47.824;18.982;2023-08-07T10:04:48;15.90;99.90
40077;DHT22;25777;47.824;18.982;2023-08-07T10:07:17;16.00;99.90
40077;DHT22;25777;47.824;18.982;2023-08-07T10:09:44;15.90;99.90
40077;DHT22;25777;47.824;18.982;2023-08-07T10:12:16;15.90;99.90
40077;DHT22;25777;47.824;18.982;2023-08-07T10:14:49;15.70;99.90
40077;DHT22;25777;47.824;18.982;2023-08-07T10:17:22;15.70;99.90
40077;DHT22;25777;47.824;18.982;2023-08-07T10:19:51;15.70;99.90
40077;DHT22;25777;47.824;18.982;2023-08-07T10:22:29;15.60;99.90
40077;DHT22;25777;47.824;18.982;2023-08-07T10:24:57;15.50;99.90
40077;DHT22;25777;47.824;18.982;2023-08-07T10:27:43;15.40;99.90
40077;DHT22;25777;47.824;18.982;2023-08-07T10:30:11;15.40;99.90
40077;DHT22;25777;47.824;18.982;2023-08-07T10:32:55;15.40;99.90
40077;DHT22;25777;47.824;18.982;2023-08-07T10:35:45;15.60;99.90
40077;DHT22;25777;47.824;18.982;2023-08-07T10:38:27;15.60;99.90
40077;DHT22;25777;47.824;18.982;2023-08-07T10:41:07;15.70;99.90
40077;DHT22;25777;47.824;18.982;2023-08-07T10:43:43;15.70;99.90
40077;DHT22;25777;47.824;18.982;2023-08-07T10:46:19;15.60;99.90
40077;DHT22;25777;47.824;18.982;2023-08-07T10:48:55;15.50;99.90
40077;DHT22;25777;47.824;18.982;2023-08-07T10:51:30;15.40;99.90
40077;DHT22;25777;47.824;18.982;2023-08-07T10:53:57;15.20;99.90
40077;DHT22;25777;47.824;18.982;2023-08-07T10:56:36;15.30;99.90
40077;DHT22;25777;47.824;18.982;2023-08-07T10:59:12;15.20;99.90
40077;DHT22;25777;47.824;18.982;2023-08-07T11:04:14;14.80;99.90
40077;DHT22;25777;47.824;18.982;2023-08-07T11:06:47;14.70;99.90
40077;DHT22;25777;47.824;18.982;2023-08-07T11:09:13;14.80;99.90
40077;DHT22;25777;47.824;18.982;2023-08-07T11:11:50;15.10;99.90
40077;DHT22;25777;47.824;18.982;2023-08-07T11:14:22;15.30;99.90
40077;DHT22;25777;47.824;18.982;2023-08-07T11:16:53;15.00;99.90
40077;DHT22;25777;47.824;18.982;2023-08-07T11:19:19;14.80;99.90
40077;DHT22;25777;47.824;18.982;2023-08-07T11:21:45;14.90;99.90
40077;DHT22;25777;47.824;18.982;2023-08-07T11:24:18;14.90;99.90
40077;DHT22;25777;47.824;18.982;2023-08-07T11:26:45;14.80;99.90
40077;DHT22;25777;47.824;18.982;2023-08-07T11:29:16;14.70;99.90
40077;DHT22;25777;47.824;18.982;2023-08-07T11:31:43;14.70;99.90
40077;DHT22;25777;47.824;18.982;2023-08-07T11:34:10;14.70;99.90
40077;DHT22;25777;47.824;18.982;2023-08-07T11:36:54;14.90;99.90
40077;DHT22;25777;47.824;18.982;2023-08-07T11:39:40;15.00;99.90
40077;DHT22;25777;47.824;18.982;2023-08-07T11:42:13;15.00;99.90
40077;DHT22;25777;47.824;18.982;2023-08-07T11:44:42;14.40;99.90
40077;DHT22;25777;47.824;18.982;2023-08-07T11:47:10;14.10;99.90
40077;DHT22;25777;47.824;18.982;2023-08-07T11:49:36;14.10;99.90
40077;DHT22;25777;47.824;18.982;2023-08-07T11:52:04;14.20;99.90
40077;DHT22;25777;47.824;18.982;2023-08-07T11:54:30;14.40;99.90
40077;DHT22;25777;47.824;18.982;2023-08-07T11:57:25;14.50;99.90
40077;DHT22;25777;47.824;18.982;2023-08-07T11:59:52;14.60;99.90
40077;DHT22;25777;47.824;18.982;2023-08-07T12:02:43;14.40;99.90
40077;DHT22;25777;47.824;18.982;2023-08-07T12:05:11;14.50;99.90
40077;DHT22;25777;47.824;18.982;2023-08-07T12:07:48;14.60;99.90
40077;DHT22;25777;47.824;18.982;2023-08-07T12:10:15;14.70;99.90
40077;DHT22;25777;47.824;18.982;2023-08-07T12:12:44;14.70;99.90
40077;DHT22;25777;47.824;18.982;2023-08-07T12:15:23;14.80;99.90
40077;DHT22;25777;47.824;18.982;2023-08-07T12:18:02;14.90;99.90
40077;DHT22;25777;47.824;18.982;2023-08-07T12:20:28;14.70;99.90
40077;DHT22;25777;47.824;18.982;2023-08-07T12:23:00;14.60;99.90
40077;DHT22;25777;47.824;18.982;2023-08-07T12:25:31;14.70;99.90
40077;DHT22;25777;47.824;18.982;2023-08-07T12:28:10;14.70;99.90
40077;DHT22;25777;47.824;18.982;2023-08-07T12:30:38;14.80;99.90
40077;DHT22;25777;47.824;18.982;2023-08-07T12:33:05;14.70;99.90
40077;DHT22;25777;47.824;18.982;2023-08-07T12:35:37;14.60;99.90
40077;DHT22;25777;47.824;18.982;2023-08-07T12:38:04;14.70;99.90
40077;DHT22;25777;47.824;18.982;2023-08-07T12:40:32;14.90;99.90
40077;DHT22;25777;47.824;18.982;2023-08-07T12:43:02;14.80;99.90
40077;DHT22;25777;47.824;18.982;2023-08-07T12:45:29;14.60;99.90
40077;DHT22;25777;47.824;18.982;2023-08-07T12:47:56;14.60;99.90
40077;DHT22;25777;47.824;18.982;2023-08-07T12:50:34;14.60;99.90
40077;DHT22;25777;47.824;18.982;2023-08-07T12:53:03;14.70;99.90
40077;DHT22;25777;47.824;18.982;2023-08-07T12:55:31;14.70;99.90
40077;DHT22;25777;47.824;18.982;2023-08-07T12:58:08;14.80;99.90
40077;DHT22;25777;47.824;18.982;2023-08-07T13:00:34;14.60;99.90
40077;DHT22;25777;47.824;18.982;2023-08-07T13:03:01;14.60;99.90
40077;DHT22;25777;47.824;18.982;2023-08-07T13:05:30;14.60;99.90
40077;DHT22;25777;47.824;18.982;2023-08-07T13:08:02;14.50;99.90
40077;DHT22;25777;47.824;18.982;2023-08-07T13:10:43;14.50;99.90
40077;DHT22;25777;47.824;18.982;2023-08-07T13:13:20;14.50;99.90
40077;DHT22;25777;47.824;18.982;2023-08-07T13:15:52;14.40;99.90
40077;DHT22;25777;47.824;18.982;2023-08-07T13:18:24;14.40;99.90
40077;DHT22;25777;47.824;18.982;2023-08-07T13:20:51;14.50;99.90
40077;DHT22;25777;47.824;18.982;2023-08-07T13:23:18;14.50;99.90
40077;DHT22;25777;47.824;18.982;2023-08-07T13:25:47;14.60;99.90
40077;DHT22;25777;47.824;18.982;2023-08-07T13:28:12;14.50;99.90
40077;DHT22;25777;47.824;18.982;2023-08-07T13:30:40;14.50;99.90
40077;DHT22;25777;47.824;18.982;2023-08-07T13:33:36;14.60;99.90
40077;DHT22;25777;47.824;18.982;2023-08-07T13:36:02;14.70;99.90
40077;DHT22;25777;47.824;18.982;2023-08-07T13:38:28;14.60;99.90
40077;DHT22;25777;47.824;18.982;2023-08-07T13:40:59;14.60;99.90
40077;DHT22;25777;47.824;18.982;2023-08-07T13:43:26;14.50;99.90
40077;DHT22;25777;47.824;18.982;2023-08-07T13:45:52;14.50;99.90
40077;DHT22;25777;47.824;18.982;2023-08-07T13:48:18;14.50;99.90
40077;DHT22;25777;47.824;18.982;2023-08-07T13:50:44;14.50;99.90
40077;DHT22;25777;47.824;18.982;2023-08-07T13:53:25;14.50;99.90
40077;DHT22;25777;47.824;18.982;2023-08-07T13:55:54;14.60;99.90
40077;DHT22;25777;47.824;18.982;2023-08-07T13:58:20;14.70;99.90
40077;DHT22;25777;47.824;18.982;2023-08-07T14:00:46;14.70;99.90
40077;DHT22;25777;47.824;18.982;2023-08-07T14:03:13;14.60;99.90
40077;DHT22;25777;47.824;18.982;2023-08-07T14:05:45;14.50;99.90
40077;DHT22;25777;47.824;18.982;2023-08-07T14:08:21;14.40;99.90
40077;DHT22;25777;47.824;18.982;2023-08-07T14:10:47;14.40;99.90
40077;DHT22;25777;47.824;18.982;2023-08-07T14:13:13;14.50;99.90
40077;DHT22;25777;47.824;18.982;2023-08-07T14:15:39;14.50;99.90
40077;DHT22;25777;47.824;18.982;2023-08-07T14:18:05;14.40;99.90
40077;DHT22;25777;47.824;18.982;2023-08-07T14:20:44;14.30;99.90
40077;DHT22;25777;47.824;18.982;2023-08-07T14:23:14;14.30;99.90
40077;DHT22;25777;47.824;18.982;2023-08-07T14:25:42;14.30;99.90
40077;DHT22;25777;47.824;18.982;2023-08-07T14:28:12;14.40;99.90
40077;DHT22;25777;47.824;18.982;2023-08-07T14:30:39;14.40;99.90
40077;DHT22;25777;47.824;18.982;2023-08-07T14:33:21;14.30;99.90
40077;DHT22;25777;47.824;18.982;2023-08-07T14:35:56;14.40;99.90
40077;DHT22;25777;47.824;18.982;2023-08-07T14:38:30;14.30;99.90
40077;DHT22;25777;47.824;18.982;2023-08-07T14:41:01;14.30;99.90
40077;DHT22;25777;47.824;18.982;2023-08-07T14:43:47;14.30;99.90
40077;DHT22;25777;47.824;18.982;2023-08-07T14:46:17;14.30;99.90
40077;DHT22;25777;47.824;18.982;2023-08-07T14:48:46;14.30;99.90
40077;DHT22;25777;47.824;18.982;2023-08-07T14:51:14;14.20;99.90
40077;DHT22;25777;47.824;18.982;2023-08-07T14:53:40;14.30;99.90
40077;DHT22;25777;47.824;18.982;2023-08-07T14:56:06;14.30;99.90
40077;DHT22;25777;47.824;18.982;2023-08-07T14:58:35;14.20;99.90
40077;DHT22;25777;47.824;18.982;2023-08-07T15:01:05;14.20;99.90
40077;DHT22;25777;47.824;18.982;2023-08-07T15:03:33;14.20;99.90
40077;DHT22;25777;47.824;18.982;2023-08-07T15:05:59;14.30;99.90
40077;DHT22;25777;47.824;18.982;2023-08-07T15:08:26;14.30;99.90
40077;DHT22;25777;47.824;18.982;2023-08-07T15:10:52;14.30;99.90
40077;DHT22;25777;47.824;18.982;2023-08-07T15:13:19;14.30;99.90
40077;DHT22;25777;47.824;18.982;2023-08-07T15:15:45;14.30;99.90
40077;DHT22;25777;47.824;18.982;2023-08-07T15:18:12;14.30;99.90
40077;DHT22;25777;47.824;18.982;2023-08-07T15:20:38;14.30;99.90
40077;DHT22;25777;47.824;18.982;2023-08-07T15:23:19;14.30;99.90
40077;DHT22;25777;47.824;18.982;2023-08-07T15:25:45;14.30;99.90
40077;DHT22;25777;47.824;18.982;2023-08-07T15:28:12;14.30;99.90
40077;DHT22;25777;47.824;18.982;2023-08-07T15:30:49;14.40;99.90
40077;DHT22;25777;47.824;18.982;2023-08-07T15:33:18;14.30;99.90
40077;DHT22;25777;47.824;18.982;2023-08-07T15:35:44;14.40;99.90
40077;DHT22;25777;47.824;18.982;2023-08-07T15:38:11;14.40;99.90
40077;DHT22;25777;47.824;18.982;2023-08-07T15:40:42;14.30;99.90
40077;DHT22;25777;47.824;18.982;2023-08-07T15:43:11;14.30;99.90
40077;DHT22;25777;47.824;18.982;2023-08-07T15:45:38;14.30;99.90
40077;DHT22;25777;47.824;18.982;2023-08-07T15:48:05;14.20;99.90
40077;DHT22;25777;47.824;18.982;2023-08-07T15:50:34;14.30;99.90